Main page
METAR-TAF:

METAR-TAF

Airports :

Budapest Ferenc Liszt International Airport

Budapest, Hungary

latitude: 47-26N, longitude: 019-16E, elevation: 151 m

Current weather observation

The report was made 22 minutes ago, at 05:00 UTC
Wind 7 kt from the North
Temperature 7°C
Humidity 66%
Pressure 1029 hPa
Visibility 10 km or more
no clouds below 1500 m and no cumulonimbus

METAR: LHBP 200500Z 35007KT CAVOK 07/01 Q1029 NOSIG

Time: 07:22 (05:22 UTC)

Forecast

The report was made 6 hours and 7 minutes ago, at 23:15 UTC
Forecast valid from 20 at 00 UTC to 20 at 24 UTC
Wind 3 kt from variable directions
Visibility 10 km or more
no clouds below 1500 m and no cumulonimbus
Becoming
from 20 at 04 UTC to 20 at 06 UTC
Wind 6 kt from the North
Becoming
from 20 at 16 UTC to 20 at 19 UTC
Wind 3 kt from variable directions

TAF: LHBP 192315Z 2000/2024 VRB03KT CAVOK BECMG 2004/2006 35006KT BECMG 2016/2019 VRB03KT

Weather observations and forecasts of more than 4000 airports (METAR and TAF reports).

The available stations are represented by yellow and red dots on the map.

Hover mouse over dot to see the name of the station.

Then click to see weather observations and forecasts.

To change the map : click on the green buttons with a black cross to zoom in, on the green button with a dash to zoom out, or on the green arrows for adjacent maps.


METAR-TAF: